sensor_id;sensor_type;location;lat;lon;timestamp;pressure;altitude;pressure_sealevel;temperature;humidity
38718;BME280;24468;52.128;9.278;2023-11-19T00:02:23;100064.66;;;9.33;100.00
38718;BME280;24468;52.128;9.278;2023-11-19T00:04:49;100071.59;;;9.39;100.00
38718;BME280;24468;52.128;9.278;2023-11-19T00:07:14;100059.50;;;9.28;100.00
38718;BME280;24468;52.128;9.278;2023-11-19T00:09:40;100057.09;;;9.22;100.00
38718;BME280;24468;52.128;9.278;2023-11-19T00:12:06;100053.31;;;9.26;100.00
38718;BME280;24468;52.128;9.278;2023-11-19T00:14:33;100043.41;;;9.27;100.00
38718;BME280;24468;52.128;9.278;2023-11-19T00:17:00;100040.50;;;9.31;100.00
38718;BME280;24468;52.128;9.278;2023-11-19T00:19:25;100031.84;;;9.44;100.00
38718;BME280;24468;52.128;9.278;2023-11-19T00:21:52;100012.41;;;9.37;100.00
38718;BME280;24468;52.128;9.278;2023-11-19T00:24:17;100009.16;;;9.49;100.00
38718;BME280;24468;52.128;9.278;2023-11-19T00:26:43;100001.63;;;9.56;100.00
38718;BME280;24468;52.128;9.278;2023-11-19T00:29:09;100018.53;;;9.41;100.00
38718;BME280;24468;52.128;9.278;2023-11-19T00:31:35;100025.22;;;9.32;100.00
38718;BME280;24468;52.128;9.278;2023-11-19T00:34:01;100031.41;;;9.34;100.00
38718;BME280;24468;52.128;9.278;2023-11-19T00:36:28;100026.81;;;9.55;100.00
38718;BME280;24468;52.128;9.278;2023-11-19T00:38:54;100021.16;;;9.42;100.00
38718;BME280;24468;52.128;9.278;2023-11-19T00:41:20;100022.09;;;9.41;100.00
38718;BME280;24468;52.128;9.278;2023-11-19T00:43:45;100024.81;;;9.41;100.00
38718;BME280;24468;52.128;9.278;2023-11-19T00:46:11;100018.91;;;9.52;100.00
38718;BME280;24468;52.128;9.278;2023-11-19T00:48:37;100002.81;;;9.50;100.00
38718;BME280;24468;52.128;9.278;2023-11-19T00:51:03;100004.03;;;9.43;100.00
38718;BME280;24468;52.128;9.278;2023-11-19T00:53:29;99990.31;;;9.49;100.00
38718;BME280;24468;52.128;9.278;2023-11-19T00:55:55;99986.94;;;9.63;100.00
38718;BME280;24468;52.128;9.278;2023-11-19T00:58:21;99979.81;;;9.79;100.00
38718;BME280;24468;52.128;9.278;2023-11-19T01:00:47;99981.78;;;9.76;100.00
38718;BME280;24468;52.128;9.278;2023-11-19T01:03:12;99977.91;;;9.82;100.00
38718;BME280;24468;52.128;9.278;2023-11-19T01:05:38;99976.81;;;9.86;100.00
38718;BME280;24468;52.128;9.278;2023-11-19T01:08:04;99968.63;;;9.87;100.00
38718;BME280;24468;52.128;9.278;2023-11-19T01:10:30;99960.81;;;10.00;100.00
38718;BME280;24468;52.128;9.278;2023-11-19T01:12:56;99965.13;;;10.04;100.00
38718;BME280;24468;52.128;9.278;2023-11-19T01:15:22;99958.59;;;9.91;100.00
38718;BME280;24468;52.128;9.278;2023-11-19T01:17:48;99954.47;;;9.84;100.00
38718;BME280;24468;52.128;9.278;2023-11-19T01:20:14;99951.44;;;9.90;100.00
38718;BME280;24468;52.128;9.278;2023-11-19T01:22:40;99943.13;;;9.94;100.00
38718;BME280;24468;52.128;9.278;2023-11-19T01:25:06;99948.53;;;9.94;100.00
38718;BME280;24468;52.128;9.278;2023-11-19T01:27:32;99964.47;;;9.99;100.00
38718;BME280;24468;52.128;9.278;2023-11-19T01:30:01;99960.81;;;10.17;100.00
38718;BME280;24468;52.128;9.278;2023-11-19T01:32:28;99951.22;;;10.12;100.00
38718;BME280;24468;52.128;9.278;2023-11-19T01:34:54;99934.56;;;10.03;100.00
38718;BME280;24468;52.128;9.278;2023-11-19T01:37:19;99933.53;;;10.06;100.00
38718;BME280;24468;52.128;9.278;2023-11-19T01:39:45;99927.59;;;10.17;100.00
38718;BME280;24468;52.128;9.278;2023-11-19T01:42:10;99924.69;;;10.04;100.00
38718;BME280;24468;52.128;9.278;2023-11-19T01:44:37;99920.97;;;10.07;100.00
38718;BME280;24468;52.128;9.278;2023-11-19T01:47:03;99925.94;;;9.79;100.00
38718;BME280;24468;52.128;9.278;2023-11-19T01:49:30;99913.41;;;9.61;100.00
38718;BME280;24468;52.128;9.278;2023-11-19T01:51:57;99903.50;;;9.62;100.00
38718;BME280;24468;52.128;9.278;2023-11-19T01:54:24;99903.53;;;9.79;100.00
38718;BME280;24468;52.128;9.278;2023-11-19T01:56:50;99886.00;;;9.88;100.00
38718;BME280;24468;52.128;9.278;2023-11-19T01:59:17;99889.31;;;9.75;100.00
38718;BME280;24468;52.128;9.278;2023-11-19T02:01:42;99888.25;;;9.79;100.00
38718;BME280;24468;52.128;9.278;2023-11-19T02:04:08;99886.94;;;9.87;100.00
38718;BME280;24468;52.128;9.278;2023-11-19T02:06:38;99903.28;;;9.49;100.00
38718;BME280;24468;52.128;9.278;2023-11-19T02:09:06;99887.66;;;9.55;100.00
38718;BME280;24468;52.128;9.278;2023-11-19T02:11:36;99881.56;;;9.52;100.00
38718;BME280;24468;52.128;9.278;2023-11-19T02:14:02;99878.88;;;9.69;100.00
38718;BME280;24468;52.128;9.278;2023-11-19T02:16:29;99881.97;;;9.79;100.00
38718;BME280;24468;52.128;9.278;2023-11-19T02:18:55;99866.75;;;9.61;100.00
38718;BME280;24468;52.128;9.278;2023-11-19T02:21:20;99857.56;;;9.82;100.00
38718;BME280;24468;52.128;9.278;2023-11-19T02:23:46;99848.13;;;9.73;100.00
38718;BME280;24468;52.128;9.278;2023-11-19T02:28:49;99850.16;;;10.03;100.00
38718;BME280;24468;52.128;9.278;2023-11-19T02:31:15;99844.56;;;9.90;100.00
38718;BME280;24468;52.128;9.278;2023-11-19T02:33:41;99845.03;;;9.98;100.00
38718;BME280;24468;52.128;9.278;2023-11-19T02:36:07;99837.25;;;10.10;100.00
38718;BME280;24468;52.128;9.278;2023-11-19T02:38:34;99839.50;;;10.35;100.00
38718;BME280;24468;52.128;9.278;2023-11-19T02:41:03;99834.00;;;10.36;100.00
38718;BME280;24468;52.128;9.278;2023-11-19T02:43:34;99838.06;;;10.45;100.00
38718;BME280;24468;52.128;9.278;2023-11-19T02:46:04;99838.22;;;10.24;100.00
38718;BME280;24468;52.128;9.278;2023-11-19T02:48:34;99828.47;;;10.22;100.00
38718;BME280;24468;52.128;9.278;2023-11-19T02:51:04;99820.00;;;10.30;100.00
38718;BME280;24468;52.128;9.278;2023-11-19T02:53:30;99813.84;;;10.28;100.00
38718;BME280;24468;52.128;9.278;2023-11-19T02:55:57;99804.91;;;10.43;100.00
38718;BME280;24468;52.128;9.278;2023-11-19T02:58:37;99815.88;;;10.40;100.00
38718;BME280;24468;52.128;9.278;2023-11-19T03:01:04;99805.34;;;10.51;100.00
38718;BME280;24468;52.128;9.278;2023-11-19T03:03:38;99802.06;;;10.62;100.00
38718;BME280;24468;52.128;9.278;2023-11-19T03:06:06;99794.56;;;10.51;100.00
38718;BME280;24468;52.128;9.278;2023-11-19T03:08:35;99796.13;;;10.71;100.00
38718;BME280;24468;52.128;9.278;2023-11-19T03:11:01;99800.38;;;10.91;100.00
38718;BME280;24468;52.128;9.278;2023-11-19T03:13:26;99787.88;;;11.20;100.00
38718;BME280;24468;52.128;9.278;2023-11-19T03:15:52;99789.94;;;11.61;100.00
38718;BME280;24468;52.128;9.278;2023-11-19T03:18:19;99776.59;;;11.88;100.00
38718;BME280;24468;52.128;9.278;2023-11-19T03:20:46;99785.81;;;11.84;100.00
38718;BME280;24468;52.128;9.278;2023-11-19T03:23:12;99790.72;;;12.22;100.00
38718;BME280;24468;52.128;9.278;2023-11-19T03:25:38;99794.47;;;11.91;100.00
38718;BME280;24468;52.128;9.278;2023-11-19T03:28:04;99794.47;;;12.34;100.00
38718;BME280;24468;52.128;9.278;2023-11-19T03:30:30;99791.00;;;12.46;100.00
38718;BME280;24468;52.128;9.278;2023-11-19T03:32:57;99776.22;;;12.37;100.00
38718;BME280;24468;52.128;9.278;2023-11-19T03:35:23;99779.19;;;12.47;100.00
38718;BME280;24468;52.128;9.278;2023-11-19T03:37:50;99782.88;;;12.46;100.00
38718;BME280;24468;52.128;9.278;2023-11-19T03:40:17;99770.91;;;12.21;100.00
38718;BME280;24468;52.128;9.278;2023-11-19T03:42:44;99750.03;;;12.38;100.00
38718;BME280;24468;52.128;9.278;2023-11-19T03:45:10;99755.84;;;12.17;100.00
38718;BME280;24468;52.128;9.278;2023-11-19T03:47:36;99741.75;;;12.27;100.00
38718;BME280;24468;52.128;9.278;2023-11-19T03:50:02;99730.22;;;12.37;100.00
38718;BME280;24468;52.128;9.278;2023-11-19T03:52:28;99736.13;;;12.71;100.00
38718;BME280;24468;52.128;9.278;2023-11-19T03:54:55;99749.34;;;12.49;100.00
38718;BME280;24468;52.128;9.278;2023-11-19T03:57:21;99736.22;;;12.97;100.00
38718;BME280;24468;52.128;9.278;2023-11-19T03:59:47;99723.50;;;13.39;100.00
38718;BME280;24468;52.128;9.278;2023-11-19T04:02:13;99709.28;;;13.35;100.00
38718;BME280;24468;52.128;9.278;2023-11-19T04:04:38;99703.56;;;13.91;100.00
38718;BME280;24468;52.128;9.278;2023-11-19T04:07:05;99698.38;;;13.88;100.00
38718;BME280;24468;52.128;9.278;2023-11-19T04:09:31;99722.44;;;13.79;100.00
38718;BME280;24468;52.128;9.278;2023-11-19T04:11:59;99719.19;;;13.74;100.00
38718;BME280;24468;52.128;9.278;2023-11-19T04:14:24;99723.94;;;13.71;100.00
38718;BME280;24468;52.128;9.278;2023-11-19T04:16:50;99711.16;;;13.86;100.00
38718;BME280;24468;52.128;9.278;2023-11-19T04:19:17;99716.06;;;14.30;100.00
38718;BME280;24468;52.128;9.278;2023-11-19T04:21:42;99728.03;;;14.15;100.00
38718;BME280;24468;52.128;9.278;2023-11-19T04:24:11;99719.47;;;14.08;100.00
38718;BME280;24468;52.128;9.278;2023-11-19T04:26:43;99705.06;;;14.08;100.00
38718;BME280;24468;52.128;9.278;2023-11-19T04:29:12;99725.78;;;13.83;100.00
38718;BME280;24468;52.128;9.278;2023-11-19T04:31:39;99719.94;;;13.89;100.00
38718;BME280;24468;52.128;9.278;2023-11-19T04:34:05;99720.34;;;14.09;100.00
38718;BME280;24468;52.128;9.278;2023-11-19T04:36:32;99697.78;;;14.08;100.00
38718;BME280;24468;52.128;9.278;2023-11-19T04:38:59;99702.03;;;13.99;100.00
38718;BME280;24468;52.128;9.278;2023-11-19T04:41:25;99699.53;;;13.96;100.00
38718;BME280;24468;52.128;9.278;2023-11-19T04:43:53;99715.22;;;14.17;100.00
38718;BME280;24468;52.128;9.278;2023-11-19T04:46:18;99708.16;;;14.40;100.00
38718;BME280;24468;52.128;9.278;2023-11-19T04:48:44;99667.56;;;13.89;100.00
38718;BME280;24468;52.128;9.278;2023-11-19T04:51:10;99685.53;;;13.90;100.00
38718;BME280;24468;52.128;9.278;2023-11-19T04:53:35;99719.59;;;13.94;100.00
38718;BME280;24468;52.128;9.278;2023-11-19T04:56:06;99702.34;;;13.95;100.00
38718;BME280;24468;52.128;9.278;2023-11-19T04:58:32;99716.91;;;13.94;100.00
38718;BME280;24468;52.128;9.278;2023-11-19T05:00:57;99699.72;;;14.19;100.00
38718;BME280;24468;52.128;9.278;2023-11-19T05:03:23;99709.66;;;14.31;100.00
38718;BME280;24468;52.128;9.278;2023-11-19T05:05:49;99702.75;;;14.14;100.00
38718;BME280;24468;52.128;9.278;2023-11-19T05:08:14;99695.41;;;14.53;100.00
38718;BME280;24468;52.128;9.278;2023-11-19T05:10:40;99697.47;;;14.50;100.00
38718;BME280;24468;52.128;9.278;2023-11-19T05:13:05;99671.75;;;14.42;100.00
38718;BME280;24468;52.128;9.278;2023-11-19T05:15:31;99675.47;;;14.29;100.00
38718;BME280;24468;52.128;9.278;2023-11-19T05:17:56;99668.25;;;14.53;100.00
38718;BME280;24468;52.128;9.278;2023-11-19T05:20:22;99661.28;;;13.75;100.00
38718;BME280;24468;52.128;9.278;2023-11-19T05:22:47;99680.03;;;14.28;100.00
38718;BME280;24468;52.128;9.278;2023-11-19T05:25:13;99670.28;;;14.26;100.00
38718;BME280;24468;52.128;9.278;2023-11-19T05:27:39;99681.00;;;14.40;100.00
38718;BME280;24468;52.128;9.278;2023-11-19T05:30:05;99678.06;;;14.43;100.00
38718;BME280;24468;52.128;9.278;2023-11-19T05:32:33;99688.31;;;14.27;100.00
38718;BME280;24468;52.128;9.278;2023-11-19T05:34:59;99678.41;;;14.26;100.00
38718;BME280;24468;52.128;9.278;2023-11-19T05:37:24;99656.28;;;14.32;100.00
38718;BME280;24468;52.128;9.278;2023-11-19T05:39:50;99664.63;;;13.79;100.00
38718;BME280;24468;52.128;9.278;2023-11-19T05:42:16;99675.38;;;13.93;100.00
38718;BME280;24468;52.128;9.278;2023-11-19T05:44:42;99686.97;;;13.83;100.00
38718;BME280;24468;52.128;9.278;2023-11-19T05:47:08;99669.13;;;14.17;100.00
38718;BME280;24468;52.128;9.278;2023-11-19T05:49:33;99687.38;;;13.89;100.00
38718;BME280;24468;52.128;9.278;2023-11-19T05:51:59;99673.81;;;14.39;100.00
38718;BME280;24468;52.128;9.278;2023-11-19T05:54:24;99687.97;;;13.69;100.00
38718;BME280;24468;52.128;9.278;2023-11-19T05:56:50;99680.75;;;14.06;100.00
38718;BME280;24468;52.128;9.278;2023-11-19T05:59:19;99660.41;;;13.75;100.00
38718;BME280;24468;52.128;9.278;2023-11-19T06:01:45;99699.63;;;13.82;100.00
38718;BME280;24468;52.128;9.278;2023-11-19T06:04:10;99673.38;;;14.08;100.00
38718;BME280;24468;52.128;9.278;2023-11-19T06:06:36;99685.00;;;13.46;100.00
38718;BME280;24468;52.128;9.278;2023-11-19T06:09:03;99677.50;;;14.01;100.00
38718;BME280;24468;52.128;9.278;2023-11-19T06:11:29;99685.00;;;13.97;100.00
38718;BME280;24468;52.128;9.278;2023-11-19T06:13:54;99697.25;;;14.03;100.00
38718;BME280;24468;52.128;9.278;2023-11-19T06:16:20;99693.13;;;13.46;100.00
38718;BME280;24468;52.128;9.278;2023-11-19T06:18:45;99693.25;;;13.96;100.00
38718;BME280;24468;52.128;9.278;2023-11-19T06:21:12;99712.53;;;13.27;100.00
38718;BME280;24468;52.128;9.278;2023-11-19T06:23:38;99681.75;;;13.92;100.00
38718;BME280;24468;52.128;9.278;2023-11-19T06:26:04;99695.53;;;13.76;100.00
38718;BME280;24468;52.128;9.278;2023-11-19T06:28:31;99704.97;;;13.84;100.00
38718;BME280;24468;52.128;9.278;2023-11-19T06:30:56;99690.09;;;13.76;100.00
38718;BME280;24468;52.128;9.278;2023-11-19T06:33:24;99705.09;;;13.69;100.00
38718;BME280;24468;52.128;9.278;2023-11-19T06:35:49;99672.97;;;13.89;100.00
38718;BME280;24468;52.128;9.278;2023-11-19T06:38:15;99712.88;;;13.61;100.00
38718;BME280;24468;52.128;9.278;2023-11-19T06:40:40;99717.22;;;13.76;100.00
38718;BME280;24468;52.128;9.278;2023-11-19T06:43:06;99697.63;;;13.20;100.00
38718;BME280;24468;52.128;9.278;2023-11-19T06:45:34;99713.63;;;13.50;100.00
38718;BME280;24468;52.128;9.278;2023-11-19T06:48:04;99723.28;;;13.67;100.00
38718;BME280;24468;52.128;9.278;2023-11-19T06:50:30;99735.84;;;13.68;100.00
38718;BME280;24468;52.128;9.278;2023-11-19T06:52:56;99730.56;;;13.79;100.00
38718;BME280;24468;52.128;9.278;2023-11-19T06:55:21;99725.88;;;13.43;100.00
38718;BME280;24468;52.128;9.278;2023-11-19T06:57:47;99733.69;;;13.48;100.00
38718;BME280;24468;52.128;9.278;2023-11-19T07:00:13;99732.81;;;13.60;100.00
38718;BME280;24468;52.128;9.278;2023-11-19T07:02:38;99758.16;;;13.33;100.00
38718;BME280;24468;52.128;9.278;2023-11-19T07:05:05;99768.69;;;13.51;100.00
38718;BME280;24468;52.128;9.278;2023-11-19T07:07:32;99758.63;;;13.53;100.00
38718;BME280;24468;52.128;9.278;2023-11-19T07:09:58;99739.34;;;13.70;100.00
38718;BME280;24468;52.128;9.278;2023-11-19T07:12:24;99763.75;;;13.83;100.00
38718;BME280;24468;52.128;9.278;2023-11-19T07:14:52;99764.50;;;13.98;100.00
38718;BME280;24468;52.128;9.278;2023-11-19T07:17:18;99753.63;;;13.60;100.00
38718;BME280;24468;52.128;9.278;2023-11-19T07:19:46;99766.16;;;13.88;100.00
38718;BME280;24468;52.128;9.278;2023-11-19T07:22:12;99777.75;;;14.02;100.00
38718;BME280;24468;52.128;9.278;2023-11-19T07:24:39;99758.00;;;14.00;100.00
38718;BME280;24468;52.128;9.278;2023-11-19T07:27:05;99760.56;;;13.51;100.00
38718;BME280;24468;52.128;9.278;2023-11-19T07:29:32;99780.69;;;13.34;100.00
38718;BME280;24468;52.128;9.278;2023-11-19T07:31:57;99778.06;;;13.85;100.00
38718;BME280;24468;52.128;9.278;2023-11-19T07:34:24;99782.94;;;13.93;100.00
38718;BME280;24468;52.128;9.278;2023-11-19T07:36:50;99779.84;;;13.46;100.00
38718;BME280;24468;52.128;9.278;2023-11-19T07:39:15;99760.44;;;13.40;100.00
38718;BME280;24468;52.128;9.278;2023-11-19T07:41:41;99794.06;;;13.63;100.00
38718;BME280;24468;52.128;9.278;2023-11-19T07:44:06;99782.16;;;13.52;100.00
38718;BME280;24468;52.128;9.278;2023-11-19T07:46:32;99784.56;;;13.70;100.00
38718;BME280;24468;52.128;9.278;2023-11-19T07:48:58;99767.91;;;13.49;100.00
38718;BME280;24468;52.128;9.278;2023-11-19T07:51:23;99784.97;;;13.51;100.00
38718;BME280;24468;52.128;9.278;2023-11-19T07:53:49;99792.09;;;13.52;100.00
38718;BME280;24468;52.128;9.278;2023-11-19T07:56:15;99796.50;;;13.27;100.00
38718;BME280;24468;52.128;9.278;2023-11-19T07:58:40;99786.16;;;13.60;100.00
38718;BME280;24468;52.128;9.278;2023-11-19T08:01:07;99778.50;;;13.66;100.00
38718;BME280;24468;52.128;9.278;2023-11-19T08:03:33;99787.66;;;13.51;100.00
38718;BME280;24468;52.128;9.278;2023-11-19T08:06:03;99785.56;;;14.07;100.00
38718;BME280;24468;52.128;9.278;2023-11-19T08:08:28;99793.81;;;14.18;100.00
38718;BME280;24468;52.128;9.278;2023-11-19T08:10:58;99799.19;;;13.67;100.00
38718;BME280;24468;52.128;9.278;2023-11-19T08:13:24;99808.66;;;13.74;100.00
38718;BME280;24468;52.128;9.278;2023-11-19T08:15:50;99794.63;;;13.68;100.00
38718;BME280;24468;52.128;9.278;2023-11-19T08:18:16;99800.63;;;13.86;100.00
38718;BME280;24468;52.128;9.278;2023-11-19T08:20:44;99793.34;;;14.12;100.00
38718;BME280;24468;52.128;9.278;2023-11-19T08:23:10;99810.06;;;13.80;100.00
38718;BME280;24468;52.128;9.278;2023-11-19T08:25:36;99777.47;;;13.54;100.00
38718;BME280;24468;52.128;9.278;2023-11-19T08:28:01;99812.88;;;13.78;100.00
38718;BME280;24468;52.128;9.278;2023-11-19T08:30:29;99800.19;;;13.92;100.00
38718;BME280;24468;52.128;9.278;2023-11-19T08:32:54;99819.56;;;13.73;100.00
38718;BME280;24468;52.128;9.278;2023-11-19T08:35:20;99804.50;;;13.82;100.00
38718;BME280;24468;52.128;9.278;2023-11-19T08:37:46;99792.91;;;13.92;100.00
38718;BME280;24468;52.128;9.278;2023-11-19T08:40:12;99807.09;;;13.70;100.00
38718;BME280;24468;52.128;9.278;2023-11-19T08:42:40;99807.25;;;13.94;100.00
38718;BME280;24468;52.128;9.278;2023-11-19T08:45:07;99817.22;;;13.94;100.00
38718;BME280;24468;52.128;9.278;2023-11-19T08:47:36;99810.75;;;13.56;100.00
38718;BME280;24468;52.128;9.278;2023-11-19T08:50:01;99812.22;;;14.00;100.00
38718;BME280;24468;52.128;9.278;2023-11-19T08:52:29;99825.91;;;13.99;100.00
38718;BME280;24468;52.128;9.278;2023-11-19T08:54:55;99832.41;;;14.22;100.00
38718;BME280;24468;52.128;9.278;2023-11-19T08:57:20;99824.81;;;14.14;100.00
38718;BME280;24468;52.128;9.278;2023-11-19T08:59:46;99820.66;;;13.57;100.00
38718;BME280;24468;52.128;9.278;2023-11-19T09:02:11;99825.16;;;13.97;100.00
38718;BME280;24468;52.128;9.278;2023-11-19T09:04:37;99811.38;;;13.20;100.00
38718;BME280;24468;52.128;9.278;2023-11-19T09:07:02;99853.19;;;13.57;100.00
38718;BME280;24468;52.128;9.278;2023-11-19T09:09:29;99824.47;;;13.41;100.00
38718;BME280;24468;52.128;9.278;2023-11-19T09:11:55;99847.22;;;13.38;100.00
38718;BME280;24468;52.128;9.278;2023-11-19T09:14:21;99840.09;;;13.37;100.00
38718;BME280;24468;52.128;9.278;2023-11-19T09:16:51;99843.75;;;13.63;100.00
38718;BME280;24468;52.128;9.278;2023-11-19T09:19:17;99824.69;;;13.38;100.00
38718;BME280;24468;52.128;9.278;2023-11-19T09:21:43;99862.41;;;13.41;100.00
38718;BME280;24468;52.128;9.278;2023-11-19T09:24:09;99865.53;;;13.62;100.00
38718;BME280;24468;52.128;9.278;2023-11-19T09:26:34;99846.03;;;13.15;100.00
38718;BME280;24468;52.128;9.278;2023-11-19T09:29:01;99851.44;;;13.29;100.00
38718;BME280;24468;52.128;9.278;2023-11-19T09:31:27;99835.44;;;13.39;100.00
38718;BME280;24468;52.128;9.278;2023-11-19T09:33:53;99848.44;;;13.87;100.00
38718;BME280;24468;52.128;9.278;2023-11-19T09:36:18;99852.00;;;13.34;100.00
38718;BME280;24468;52.128;9.278;2023-11-19T09:38:45;99838.72;;;13.44;100.00
38718;BME280;24468;52.128;9.278;2023-11-19T09:41:11;99862.78;;;13.49;100.00
38718;BME280;24468;52.128;9.278;2023-11-19T09:43:40;99846.13;;;13.55;100.00
38718;BME280;24468;52.128;9.278;2023-11-19T09:46:09;99869.97;;;13.63;100.00
38718;BME280;24468;52.128;9.278;2023-11-19T09:48:37;99845.38;;;13.66;100.00
38718;BME280;24468;52.128;9.278;2023-11-19T09:51:05;99868.06;;;13.77;100.00
38718;BME280;24468;52.128;9.278;2023-11-19T09:53:31;99869.53;;;13.96;100.00
38718;BME280;24468;52.128;9.278;2023-11-19T09:56:00;99870.34;;;13.84;100.00
38718;BME280;24468;52.128;9.278;2023-11-19T09:58:28;99858.69;;;13.96;100.00
38718;BME280;24468;52.128;9.278;2023-11-19T10:00:54;99866.25;;;14.04;100.00
38718;BME280;24468;52.128;9.278;2023-11-19T10:03:20;99877.50;;;13.85;100.00
38718;BME280;24468;52.128;9.278;2023-11-19T10:05:48;99865.94;;;13.55;100.00
38718;BME280;24468;52.128;9.278;2023-11-19T10:08:14;99877.63;;;13.83;100.00
38718;BME280;24468;52.128;9.278;2023-11-19T10:10:39;99859.97;;;14.03;100.00
38718;BME280;24468;52.128;9.278;2023-11-19T10:13:05;99851.41;;;14.22;100.00
38718;BME280;24468;52.128;9.278;2023-11-19T10:15:37;99841.50;;;13.83;100.00
38718;BME280;24468;52.128;9.278;2023-11-19T10:18:03;99819.16;;;14.17;100.00
38718;BME280;24468;52.128;9.278;2023-11-19T10:20:41;99838.81;;;13.83;100.00
38718;BME280;24468;52.128;9.278;2023-11-19T10:23:07;99822.59;;;13.55;100.00
38718;BME280;24468;52.128;9.278;2023-11-19T10:25:33;99836.38;;;13.65;100.00
38718;BME280;24468;52.128;9.278;2023-11-19T10:27:59;99843.16;;;13.98;100.00
38718;BME280;24468;52.128;9.278;2023-11-19T10:30:28;99810.28;;;14.28;100.00
38718;BME280;24468;52.128;9.278;2023-11-19T10:33:09;99827.97;;;14.34;100.00
38718;BME280;24468;52.128;9.278;2023-11-19T10:38:20;99843.16;;;13.98;100.00
38718;BME280;24468;52.128;9.278;2023-11-19T10:40:47;99841.41;;;13.44;100.00
38718;BME280;24468;52.128;9.278;2023-11-19T10:43:13;99835.63;;;13.76;100.00
38718;BME280;24468;52.128;9.278;2023-11-19T10:45:40;99833.25;;;13.71;100.00
38718;BME280;24468;52.128;9.278;2023-11-19T10:48:06;99825.69;;;14.02;100.00
38718;BME280;24468;52.128;9.278;2023-11-19T10:50:37;99818.59;;;13.61;100.00
38718;BME280;24468;52.128;9.278;2023-11-19T10:53:04;99820.03;;;13.79;100.00
38718;BME280;24468;52.128;9.278;2023-11-19T10:55:35;99828.69;;;13.85;100.00
38718;BME280;24468;52.128;9.278;2023-11-19T10:58:07;99827.84;;;13.97;100.00
38718;BME280;24468;52.128;9.278;2023-11-19T11:00:50;99819.38;;;13.76;100.00
38718;BME280;24468;52.128;9.278;2023-11-19T11:03:18;99848.63;;;13.58;100.00
38718;BME280;24468;52.128;9.278;2023-11-19T11:05:47;99824.34;;;13.82;100.00
38718;BME280;24468;52.128;9.278;2023-11-19T11:08:14;99809.28;;;13.78;100.00
38718;BME280;24468;52.128;9.278;2023-11-19T11:10:52;99816.88;;;13.98;100.00
38718;BME280;24468;52.128;9.278;2023-11-19T11:13:18;99837.31;;;14.04;100.00
38718;BME280;24468;52.128;9.278;2023-11-19T11:15:48;99825.25;;;13.95;100.00
38718;BME280;24468;52.128;9.278;2023-11-19T11:18:14;99820.91;;;13.93;100.00
38718;BME280;24468;52.128;9.278;2023-11-19T11:20:40;99818.84;;;14.09;100.00
38718;BME280;24468;52.128;9.278;2023-11-19T11:23:18;99817.97;;;13.83;100.00
38718;BME280;24468;52.128;9.278;2023-11-19T11:31:56;99810.81;;;14.20;100.00
38718;BME280;24468;52.128;9.278;2023-11-19T11:34:46;99820.25;;;14.28;100.00
38718;BME280;24468;52.128;9.278;2023-11-19T11:37:46;99828.63;;;13.99;100.00
38718;BME280;24468;52.128;9.278;2023-11-19T11:40:17;99824.16;;;14.36;100.00
38718;BME280;24468;52.128;9.278;2023-11-19T11:42:44;99819.38;;;14.65;100.00
38718;BME280;24468;52.128;9.278;2023-11-19T11:45:12;99798.38;;;14.18;100.00
38718;BME280;24468;52.128;9.278;2023-11-19T11:50:16;99800.31;;;14.03;100.00
38718;BME280;24468;52.128;9.278;2023-11-19T11:55:52;99834.25;;;14.47;100.00
38718;BME280;24468;52.128;9.278;2023-11-19T11:58:31;99811.78;;;14.71;100.00
38718;BME280;24468;52.128;9.278;2023-11-19T12:00:59;99809.19;;;14.31;100.00
38718;BME280;24468;52.128;9.278;2023-11-19T12:03:28;99819.81;;;14.34;100.00
38718;BME280;24468;52.128;9.278;2023-11-19T12:05:55;99801.59;;;14.36;100.00
38718;BME280;24468;52.128;9.278;2023-11-19T12:08:27;99822.75;;;14.31;100.00
38718;BME280;24468;52.128;9.278;2023-11-19T12:10:55;99813.16;;;14.51;100.00
38718;BME280;24468;52.128;9.278;2023-11-19T12:13:24;99836.41;;;14.42;100.00
38718;BME280;24468;52.128;9.278;2023-11-19T12:20:49;99838.25;;;14.29;100.00
38718;BME280;24468;52.128;9.278;2023-11-19T12:23:14;99829.13;;;14.42;100.00
38718;BME280;24468;52.128;9.278;2023-11-19T12:25:41;99830.03;;;14.30;100.00
38718;BME280;24468;52.128;9.278;2023-11-19T12:28:12;99826.31;;;14.70;100.00
38718;BME280;24468;52.128;9.278;2023-11-19T12:30:38;99829.25;;;14.66;100.00
38718;BME280;24468;52.128;9.278;2023-11-19T12:33:08;99810.78;;;14.72;100.00
38718;BME280;24468;52.128;9.278;2023-11-19T12:35:45;99805.63;;;14.05;100.00
38718;BME280;24468;52.128;9.278;2023-11-19T12:40:46;99823.66;;;14.57;100.00
38718;BME280;24468;52.128;9.278;2023-11-19T12:43:21;99824.47;;;14.44;100.00
38718;BME280;24468;52.128;9.278;2023-11-19T12:45:47;99800.84;;;13.83;100.00
38718;BME280;24468;52.128;9.278;2023-11-19T12:48:13;99806.03;;;14.37;100.00
38718;BME280;24468;52.128;9.278;2023-11-19T12:50:53;99794.31;;;13.98;100.00
38718;BME280;24468;52.128;9.278;2023-11-19T12:53:21;99808.00;;;14.35;100.00
38718;BME280;24468;52.128;9.278;2023-11-19T12:55:47;99796.84;;;14.14;100.00
38718;BME280;24468;52.128;9.278;2023-11-19T12:58:32;99819.75;;;14.10;100.00
38718;BME280;24468;52.128;9.278;2023-11-19T13:01:07;99807.47;;;13.91;100.00
38718;BME280;24468;52.128;9.278;2023-11-19T13:03:37;99803.53;;;13.95;100.00
38718;BME280;24468;52.128;9.278;2023-11-19T13:06:11;99785.78;;;13.91;100.00
38718;BME280;24468;52.128;9.278;2023-11-19T13:08:42;99799.03;;;13.96;100.00
38718;BME280;24468;52.128;9.278;2023-11-19T13:11:12;99768.41;;;14.19;100.00
38718;BME280;24468;52.128;9.278;2023-11-19T13:14:02;99784.69;;;13.94;100.00
38718;BME280;24468;52.128;9.278;2023-11-19T13:16:36;99780.56;;;14.14;100.00